Terminal Aerodrome Forecast
Issued by NWS

Home | Current Version | Previous Version | Text Only | Print | Product List | Glossary On
Versions: 1 2 3 4 5 6 7 8 9 10 11 12 13 14 15 16 17 18 19 20 21 22 23 24 25 26 27 28 29 30 31 32 33 34 35
000
FTUS43 KPAH 270800 AAB
TAFOWB
TAF AMD
KOWB 270817Z 2708/2806 12003KT 4SM BR OVC004
      TEMPO 2708/2710 3SM -FZRA BR
     FM271200 VRB02KT 3SM BR OVC015
     FM271500 36006KT P6SM BKN020
     FM280300 03005KT P6SM BKN030=

USA.gov is the U.S. government's official web portal to all federal, state and local government web resources and services.